sensor_id;sensor_type;location;lat;lon;timestamp;temperature;humidity
23403;DHT22;11874;48.228;11.684;2023-08-24T07:17:45;25.50;99.90
23403;DHT22;11874;48.228;11.684;2023-08-24T07:20:14;25.50;99.90
23403;DHT22;11874;48.228;11.684;2023-08-24T07:22:43;25.50;99.90
23403;DHT22;11874;48.228;11.684;2023-08-24T07:25:11;25.60;99.90
23403;DHT22;11874;48.228;11.684;2023-08-24T07:27:40;25.60;99.90
23403;DHT22;11874;48.228;11.684;2023-08-24T07:30:10;25.60;99.90
23403;DHT22;11874;48.228;11.684;2023-08-24T07:33:00;25.60;99.90
23403;DHT22;11874;48.228;11.684;2023-08-24T07:35:30;25.70;99.90
23403;DHT22;11874;48.228;11.684;2023-08-24T07:38:00;25.70;99.90
23403;DHT22;11874;48.228;11.684;2023-08-24T07:40:28;25.70;99.90
23403;DHT22;11874;48.228;11.684;2023-08-24T07:42:56;25.70;99.90
23403;DHT22;11874;48.228;11.684;2023-08-24T07:45:24;25.70;99.90
23403;DHT22;11874;48.228;11.684;2023-08-24T07:47:55;25.70;99.90
23403;DHT22;11874;48.228;11.684;2023-08-24T07:50:25;25.80;99.90
23403;DHT22;11874;48.228;11.684;2023-08-24T07:52:53;25.80;99.90
23403;DHT22;11874;48.228;11.684;2023-08-24T07:55:24;25.80;99.90
23403;DHT22;11874;48.228;11.684;2023-08-24T07:57:52;25.90;99.90
23403;DHT22;11874;48.228;11.684;2023-08-24T08:00:20;25.90;99.90
23403;DHT22;11874;48.228;11.684;2023-08-24T08:02:49;25.90;99.90
23403;DHT22;11874;48.228;11.684;2023-08-24T08:05:18;25.90;99.90
23403;DHT22;11874;48.228;11.684;2023-08-24T08:07:48;26.00;99.90
23403;DHT22;11874;48.228;11.684;2023-08-24T08:10:17;26.00;99.90
23403;DHT22;11874;48.228;11.684;2023-08-24T08:12:47;26.00;99.90
23403;DHT22;11874;48.228;11.684;2023-08-24T08:15:15;26.00;99.90
23403;DHT22;11874;48.228;11.684;2023-08-24T08:17:43;26.00;99.90
23403;DHT22;11874;48.228;11.684;2023-08-24T08:20:14;26.00;99.90
23403;DHT22;11874;48.228;11.684;2023-08-24T08:22:43;26.10;99.90
23403;DHT22;11874;48.228;11.684;2023-08-24T08:25:19;26.10;99.90
23403;DHT22;11874;48.228;11.684;2023-08-24T08:27:49;26.10;99.90
23403;DHT22;11874;48.228;11.684;2023-08-24T08:30:18;26.10;99.90
23403;DHT22;11874;48.228;11.684;2023-08-24T08:32:47;26.20;99.90
23403;DHT22;11874;48.228;11.684;2023-08-24T08:35:18;26.20;99.90
23403;DHT22;11874;48.228;11.684;2023-08-24T08:37:46;26.20;99.90
23403;DHT22;11874;48.228;11.684;2023-08-24T08:40:19;26.20;99.90
23403;DHT22;11874;48.228;11.684;2023-08-24T08:42:47;26.20;99.90
23403;DHT22;11874;48.228;11.684;2023-08-24T08:45:18;26.20;99.90
23403;DHT22;11874;48.228;11.684;2023-08-24T08:47:47;26.30;99.90
23403;DHT22;11874;48.228;11.684;2023-08-24T08:50:18;26.30;99.90
23403;DHT22;11874;48.228;11.684;2023-08-24T08:52:46;26.30;99.90
23403;DHT22;11874;48.228;11.684;2023-08-24T08:55:14;26.30;99.90
23403;DHT22;11874;48.228;11.684;2023-08-24T08:57:47;26.30;99.90
23403;DHT22;11874;48.228;11.684;2023-08-24T09:00:17;26.30;99.90
23403;DHT22;11874;48.228;11.684;2023-08-24T09:02:48;26.40;99.90
23403;DHT22;11874;48.228;11.684;2023-08-24T09:05:17;26.40;99.90
23403;DHT22;11874;48.228;11.684;2023-08-24T09:07:47;26.40;99.90
23403;DHT22;11874;48.228;11.684;2023-08-24T09:10:16;26.40;99.90
23403;DHT22;11874;48.228;11.684;2023-08-24T09:12:46;26.50;99.90
23403;DHT22;11874;48.228;11.684;2023-08-24T09:15:14;26.50;99.90
23403;DHT22;11874;48.228;11.684;2023-08-24T09:17:43;26.50;99.90
23403;DHT22;11874;48.228;11.684;2023-08-24T09:20:12;26.50;99.90
23403;DHT22;11874;48.228;11.684;2023-08-24T09:22:43;26.60;99.90
23403;DHT22;11874;48.228;11.684;2023-08-24T09:25:12;26.60;99.90
23403;DHT22;11874;48.228;11.684;2023-08-24T09:27:41;26.60;99.90
23403;DHT22;11874;48.228;11.684;2023-08-24T09:30:11;26.70;99.90
23403;DHT22;11874;48.228;11.684;2023-08-24T09:32:42;26.70;99.90
23403;DHT22;11874;48.228;11.684;2023-08-24T09:35:11;26.70;99.90
23403;DHT22;11874;48.228;11.684;2023-08-24T09:37:40;26.80;99.90
23403;DHT22;11874;48.228;11.684;2023-08-24T09:40:13;26.90;99.90
23403;DHT22;11874;48.228;11.684;2023-08-24T09:42:42;26.90;99.90
23403;DHT22;11874;48.228;11.684;2023-08-24T09:45:13;26.90;99.90
23403;DHT22;11874;48.228;11.684;2023-08-24T09:47:49;27.00;99.90
23403;DHT22;11874;48.228;11.684;2023-08-24T09:50:17;27.00;99.90
23403;DHT22;11874;48.228;11.684;2023-08-24T09:52:47;27.00;99.90
23403;DHT22;11874;48.228;11.684;2023-08-24T09:55:21;27.00;99.90
23403;DHT22;11874;48.228;11.684;2023-08-24T09:57:53;27.00;99.90
23403;DHT22;11874;48.228;11.684;2023-08-24T10:00:26;27.00;99.90
23403;DHT22;11874;48.228;11.684;2023-08-24T10:02:55;27.00;99.90
23403;DHT22;11874;48.228;11.684;2023-08-24T10:05:27;27.00;99.90
23403;DHT22;11874;48.228;11.684;2023-08-24T10:08:12;27.00;99.90
23403;DHT22;11874;48.228;11.684;2023-08-24T10:10:42;27.00;99.90
23403;DHT22;11874;48.228;11.684;2023-08-24T10:13:20;27.00;99.90
23403;DHT22;11874;48.228;11.684;2023-08-24T10:15:50;27.00;99.90
23403;DHT22;11874;48.228;11.684;2023-08-24T10:18:19;27.00;99.90
23403;DHT22;11874;48.228;11.684;2023-08-24T10:20:50;27.10;99.90
23403;DHT22;11874;48.228;11.684;2023-08-24T10:23:20;27.10;99.90
23403;DHT22;11874;48.228;11.684;2023-08-24T10:25:52;27.10;99.90
23403;DHT22;11874;48.228;11.684;2023-08-24T10:28:24;27.10;99.90
23403;DHT22;11874;48.228;11.684;2023-08-24T10:30:54;27.20;99.90
23403;DHT22;11874;48.228;11.684;2023-08-24T10:33:24;27.20;99.90
23403;DHT22;11874;48.228;11.684;2023-08-24T10:35:53;27.20;99.90
23403;DHT22;11874;48.228;11.684;2023-08-24T10:38:25;27.20;99.90
23403;DHT22;11874;48.228;11.684;2023-08-24T10:40:54;27.20;99.90
23403;DHT22;11874;48.228;11.684;2023-08-24T10:43:22;27.20;99.90
23403;DHT22;11874;48.228;11.684;2023-08-24T10:45:59;27.20;99.90
23403;DHT22;11874;48.228;11.684;2023-08-24T10:48:28;27.20;99.90
23403;DHT22;11874;48.228;11.684;2023-08-24T10:51:17;27.20;99.90
23403;DHT22;11874;48.228;11.684;2023-08-24T10:53:51;27.30;99.90
23403;DHT22;11874;48.228;11.684;2023-08-24T10:56:30;27.30;99.90
23403;DHT22;11874;48.228;11.684;2023-08-24T10:59:19;27.30;99.90
23403;DHT22;11874;48.228;11.684;2023-08-24T11:01:56;27.30;99.90
23403;DHT22;11874;48.228;11.684;2023-08-24T11:04:24;27.40;99.90
23403;DHT22;11874;48.228;11.684;2023-08-24T11:06:54;27.40;99.90
23403;DHT22;11874;48.228;11.684;2023-08-24T11:09:23;27.40;99.90
23403;DHT22;11874;48.228;11.684;2023-08-24T11:11:57;27.50;99.90
23403;DHT22;11874;48.228;11.684;2023-08-24T11:14:26;27.50;99.90
23403;DHT22;11874;48.228;11.684;2023-08-24T11:17:00;27.50;99.90
23403;DHT22;11874;48.228;11.684;2023-08-24T11:19:29;27.50;99.90
23403;DHT22;11874;48.228;11.684;2023-08-24T11:21:58;27.50;99.90
23403;DHT22;11874;48.228;11.684;2023-08-24T11:24:27;27.60;99.90
23403;DHT22;11874;48.228;11.684;2023-08-24T11:26:55;27.60;99.90
23403;DHT22;11874;48.228;11.684;2023-08-24T11:29:27;27.60;99.90
23403;DHT22;11874;48.228;11.684;2023-08-24T11:31:58;27.60;99.90
23403;DHT22;11874;48.228;11.684;2023-08-24T11:34:26;27.70;99.90
23403;DHT22;11874;48.228;11.684;2023-08-24T11:36:54;27.70;99.90
23403;DHT22;11874;48.228;11.684;2023-08-24T11:39:23;27.70;99.90
23403;DHT22;11874;48.228;11.684;2023-08-24T11:41:59;27.80;99.90
23403;DHT22;11874;48.228;11.684;2023-08-24T11:44:29;27.80;99.90
23403;DHT22;11874;48.228;11.684;2023-08-24T11:46:59;27.80;99.90
23403;DHT22;11874;48.228;11.684;2023-08-24T11:49:27;27.80;99.90
23403;DHT22;11874;48.228;11.684;2023-08-24T11:51:57;27.80;99.80
23403;DHT22;11874;48.228;11.684;2023-08-24T11:54:25;27.80;99.70
23403;DHT22;11874;48.228;11.684;2023-08-24T11:56:53;27.90;99.90
23403;DHT22;11874;48.228;11.684;2023-08-24T11:59:22;27.90;99.40
23403;DHT22;11874;48.228;11.684;2023-08-24T12:01:54;27.90;99.00
23403;DHT22;11874;48.228;11.684;2023-08-24T12:04:23;27.90;98.80
23403;DHT22;11874;48.228;11.684;2023-08-24T12:06:54;28.00;98.70
23403;DHT22;11874;48.228;11.684;2023-08-24T12:09:22;28.00;98.80
23403;DHT22;11874;48.228;11.684;2023-08-24T12:11:55;28.00;98.10
23403;DHT22;11874;48.228;11.684;2023-08-24T12:14:24;28.00;97.90
23403;DHT22;11874;48.228;11.684;2023-08-24T12:16:52;28.00;98.10
23403;DHT22;11874;48.228;11.684;2023-08-24T12:19:22;28.10;98.20
23403;DHT22;11874;48.228;11.684;2023-08-24T12:21:50;28.10;98.20
23403;DHT22;11874;48.228;11.684;2023-08-24T12:24:20;28.10;98.30
23403;DHT22;11874;48.228;11.684;2023-08-24T12:26:55;28.20;98.40
23403;DHT22;11874;48.228;11.684;2023-08-24T12:29:31;28.20;98.40
23403;DHT22;11874;48.228;11.684;2023-08-24T12:31:59;28.20;98.40
23403;DHT22;11874;48.228;11.684;2023-08-24T12:34:28;28.30;98.40
23403;DHT22;11874;48.228;11.684;2023-08-24T12:36:59;28.40;98.20
23403;DHT22;11874;48.228;11.684;2023-08-24T12:39:27;28.40;98.00
23403;DHT22;11874;48.228;11.684;2023-08-24T12:41:56;28.40;97.90
23403;DHT22;11874;48.228;11.684;2023-08-24T12:44:24;28.50;97.90
23403;DHT22;11874;48.228;11.684;2023-08-24T12:46:52;28.50;97.90
23403;DHT22;11874;48.228;11.684;2023-08-24T12:49:20;28.70;97.80
23403;DHT22;11874;48.228;11.684;2023-08-24T12:51:50;28.80;97.80
23403;DHT22;11874;48.228;11.684;2023-08-24T12:54:18;28.80;97.60
23403;DHT22;11874;48.228;11.684;2023-08-24T12:56:46;29.00;97.60
23403;DHT22;11874;48.228;11.684;2023-08-24T12:59:15;29.10;96.90
23403;DHT22;11874;48.228;11.684;2023-08-24T13:01:42;29.20;96.70
23403;DHT22;11874;48.228;11.684;2023-08-24T13:04:10;29.30;96.80
23403;DHT22;11874;48.228;11.684;2023-08-24T13:06:39;29.30;96.50
23403;DHT22;11874;48.228;11.684;2023-08-24T13:09:08;29.40;96.10
23403;DHT22;11874;48.228;11.684;2023-08-24T13:11:38;29.50;95.90
23403;DHT22;11874;48.228;11.684;2023-08-24T13:14:06;29.50;95.70
23403;DHT22;11874;48.228;11.684;2023-08-24T13:16:34;29.60;95.50
23403;DHT22;11874;48.228;11.684;2023-08-24T13:19:03;29.70;95.30
23403;DHT22;11874;48.228;11.684;2023-08-24T13:21:31;29.70;95.30
23403;DHT22;11874;48.228;11.684;2023-08-24T13:23:59;29.80;94.90
23403;DHT22;11874;48.228;11.684;2023-08-24T13:26:28;29.90;94.60
23403;DHT22;11874;48.228;11.684;2023-08-24T13:28:56;29.90;94.70
23403;DHT22;11874;48.228;11.684;2023-08-24T13:31:28;30.00;94.70
23403;DHT22;11874;48.228;11.684;2023-08-24T13:33:57;30.00;94.50
23403;DHT22;11874;48.228;11.684;2023-08-24T13:36:25;30.10;94.20
23403;DHT22;11874;48.228;11.684;2023-08-24T13:38:56;30.20;94.40
23403;DHT22;11874;48.228;11.684;2023-08-24T13:41:24;30.20;95.00
23403;DHT22;11874;48.228;11.684;2023-08-24T13:43:53;30.20;94.70
23403;DHT22;11874;48.228;11.684;2023-08-24T13:46:22;30.30;94.50
23403;DHT22;11874;48.228;11.684;2023-08-24T13:48:50;30.40;94.90
23403;DHT22;11874;48.228;11.684;2023-08-24T13:51:18;30.50;95.50
23403;DHT22;11874;48.228;11.684;2023-08-24T13:53:47;30.60;95.00
23403;DHT22;11874;48.228;11.684;2023-08-24T13:56:15;30.70;95.00
23403;DHT22;11874;48.228;11.684;2023-08-24T13:58:43;30.90;95.80
23403;DHT22;11874;48.228;11.684;2023-08-24T14:01:13;31.60;96.00
23403;DHT22;11874;48.228;11.684;2023-08-24T14:03:41;32.50;95.00
23403;DHT22;11874;48.228;11.684;2023-08-24T14:06:11;33.20;93.90
23403;DHT22;11874;48.228;11.684;2023-08-24T14:08:40;33.50;93.60
23403;DHT22;11874;48.228;11.684;2023-08-24T14:11:08;33.50;93.50
23403;DHT22;11874;48.228;11.684;2023-08-24T14:13:40;33.40;93.50
23403;DHT22;11874;48.228;11.684;2023-08-24T14:16:08;33.20;93.40
23403;DHT22;11874;48.228;11.684;2023-08-24T14:18:38;33.10;93.50
23403;DHT22;11874;48.228;11.684;2023-08-24T14:21:07;33.00;93.40
23403;DHT22;11874;48.228;11.684;2023-08-24T14:23:38;32.90;93.30
23403;DHT22;11874;48.228;11.684;2023-08-24T14:26:06;32.90;93.50
23403;DHT22;11874;48.228;11.684;2023-08-24T14:28:47;32.90;93.60
23403;DHT22;11874;48.228;11.684;2023-08-24T14:31:15;32.90;93.80
23403;DHT22;11874;48.228;11.684;2023-08-24T14:33:45;33.00;93.80
23403;DHT22;11874;48.228;11.684;2023-08-24T14:36:13;33.10;93.80
23403;DHT22;11874;48.228;11.684;2023-08-24T14:38:41;33.20;93.60
23403;DHT22;11874;48.228;11.684;2023-08-24T14:41:11;33.30;93.50
23403;DHT22;11874;48.228;11.684;2023-08-24T14:43:39;33.40;93.40
23403;DHT22;11874;48.228;11.684;2023-08-24T14:46:08;33.50;93.40
23403;DHT22;11874;48.228;11.684;2023-08-24T14:48:36;33.60;93.40
23403;DHT22;11874;48.228;11.684;2023-08-24T14:51:05;33.70;93.60
23403;DHT22;11874;48.228;11.684;2023-08-24T14:53:35;33.80;93.60
23403;DHT22;11874;48.228;11.684;2023-08-24T14:56:04;33.90;93.60
23403;DHT22;11874;48.228;11.684;2023-08-24T14:58:35;33.90;93.60
23403;DHT22;11874;48.228;11.684;2023-08-24T15:01:03;34.00;93.50
23403;DHT22;11874;48.228;11.684;2023-08-24T15:03:31;33.90;93.70
23403;DHT22;11874;48.228;11.684;2023-08-24T15:06:01;33.90;94.10
23403;DHT22;11874;48.228;11.684;2023-08-24T15:08:33;34.00;94.20
23403;DHT22;11874;48.228;11.684;2023-08-24T15:11:01;33.90;94.30
23403;DHT22;11874;48.228;11.684;2023-08-24T15:13:34;33.90;94.30
23403;DHT22;11874;48.228;11.684;2023-08-24T15:16:02;33.70;94.30
